^^
Your Local Weather - Clay, NY Station Historical Data
Daily Summary for January 18, 2018 Units:  English    Metric   Both
« Previous Day
Next Day »
Daily Weekly Monthly Yearly Custom
  High: Low: Average:
Temperature: 21.3 °F -6.6 °F 10.9 °F
Dew Point: 16.6 °F -10.4 °F 6.8 °F
Humidity: 89% 80% 83%
Wind Speed: 6.0mph 0.0mph 1.7mph
Wind Gust: 12.0mph - -
Wind- - WSW
Pressure: 30.13 in 29.99 in -
Precipitation: 0.00 in    
Historical Graphs
 
 
Tabular Data for January 18, 2018
Time Temperature Dew Point Pressure Wind Wind Speed Wind Gust Humidity Rainfall Rate (Hourly) solar
00:06 1.5 °F -1.7 °F 30.13 in Calm     86% 0.00 in 0 W/m2
00:12 1.4 °F -1.8 °F 30.13 in Calm     86% 0.00 in 0 W/m2
00:18 1.3 °F -1.9 °F 30.12 in Calm     86% 0.00 in 0 W/m2
00:24 1.1 °F -2.1 °F 30.12 in Calm     86% 0.00 in 0 W/m2
00:30 1.0 °F -2.2 °F 30.12 in Calm     86% 0.00 in 0 W/m2
00:35 0.9 °F -2.3 °F 30.12 in Calm     86% 0.00 in 0 W/m2
00:42 0.8 °F -2.4 °F 30.11 in Calm     86% 0.00 in 0 W/m2
00:48 0.7 °F -2.5 °F 30.11 in Calm     86% 0.00 in 0 W/m2
00:54 0.6 °F -2.6 °F 30.11 in Calm     86% 0.00 in 0 W/m2
01:00 0.4 °F -2.8 °F 30.10 in Calm     86% 0.00 in 0 W/m2
01:05 0.3 °F -2.9 °F 30.10 in Calm     86% 0.00 in 0 W/m2
01:12 0.2 °F -3.0 °F 30.10 in Calm     86% 0.00 in 0 W/m2
01:18 0.0 °F -3.2 °F 30.10 in Calm     86% 0.00 in 0 W/m2
01:24 -0.1 °F -3.5 °F 30.10 in Calm     85% 0.00 in 0 W/m2
01:29 -0.3 °F -3.7 °F 30.10 in Calm     85% 0.00 in 0 W/m2
01:36 -0.3 °F -3.7 °F 30.10 in Calm     85% 0.00 in 0 W/m2
01:42 -0.4 °F -3.6 °F 30.10 in Calm     86% 0.00 in 0 W/m2
01:48 -0.5 °F -3.7 °F 30.10 in Calm     86% 0.00 in 0 W/m2
01:53 -0.6 °F -3.8 °F 30.10 in Calm     86% 0.00 in 0 W/m2
01:59 -0.6 °F -4.0 °F 30.10 in Calm     85% 0.00 in 0 W/m2
02:05 -0.8 °F -4.2 °F 30.10 in Calm     85% 0.00 in 0 W/m2
02:12 -1.0 °F -4.4 °F 30.11 in Calm     85% 0.00 in 0 W/m2
02:18 -1.3 °F -4.7 °F 30.11 in Calm     85% 0.00 in 0 W/m2
02:24 -1.4 °F -4.8 °F 30.11 in Calm     85% 0.00 in 0 W/m2
02:30 -1.5 °F -4.9 °F 30.11 in Calm     85% 0.00 in 0 W/m2
02:36 -1.6 °F -5.0 °F 30.11 in Calm     85% 0.00 in 0 W/m2
02:42 -1.7 °F -5.1 °F 30.11 in Calm     85% 0.00 in 0 W/m2
02:48 -1.8 °F -5.2 °F 30.11 in Calm     85% 0.00 in 0 W/m2
02:53 -1.8 °F -5.2 °F 30.11 in Calm     85% 0.00 in 0 W/m2
03:00 -1.9 °F -5.3 °F 30.10 in Calm     85% 0.00 in 0 W/m2
03:06 -2.1 °F -5.5 °F 30.10 in Calm     85% 0.00 in 0 W/m2
03:12 -2.3 °F -5.7 °F 30.10 in Calm     85% 0.00 in 0 W/m2
03:18 -2.4 °F -5.8 °F 30.10 in Calm     85% 0.00 in 0 W/m2
03:24 -2.5 °F -5.9 °F 30.10 in Calm     85% 0.00 in 0 W/m2
03:29 -2.5 °F -5.9 °F 30.10 in Calm     85% 0.00 in 0 W/m2
03:36 -2.8 °F -6.2 °F 30.09 in Calm     85% 0.00 in 0 W/m2
03:42 -2.9 °F -6.3 °F 30.09 in Calm     85% 0.00 in 0 W/m2
03:48 -3.1 °F -6.5 °F 30.09 in Calm     85% 0.00 in 0 W/m2
03:54 -3.3 °F -6.7 °F 30.09 in Calm     85% 0.00 in 0 W/m2
03:59 -3.4 °F -7.0 °F 30.09 in Calm     84% 0.00 in 0 W/m2
04:05 -3.5 °F -6.9 °F 30.08 in Calm     85% 0.00 in 0 W/m2
04:12 -3.6 °F -7.0 °F 30.08 in Calm     85% 0.00 in 0 W/m2
04:18 -3.7 °F -7.1 °F 30.08 in Calm     85% 0.00 in 0 W/m2
04:24 -3.9 °F -7.5 °F 30.08 in Calm     84% 0.00 in 0 W/m2
04:30 -4.1 °F -7.7 °F 30.08 in Calm     84% 0.00 in 0 W/m2
04:35 -4.2 °F -7.8 °F 30.08 in Calm     84% 0.00 in 0 W/m2
04:42 -4.4 °F -8.0 °F 30.08 in Calm     84% 0.00 in 0 W/m2
04:48 -4.5 °F -8.1 °F 30.08 in Calm     84% 0.00 in 0 W/m2
04:53 -4.6 °F -8.2 °F 30.08 in Calm     84% 0.00 in 0 W/m2
04:59 -4.8 °F -8.4 °F 30.08 in Calm     84% 0.00 in 0 W/m2
05:05 -4.9 °F -8.5 °F 30.08 in Calm     84% 0.00 in 0 W/m2
05:12 -5.0 °F -8.6 °F 30.08 in Calm     84% 0.00 in 0 W/m2
05:18 -5.1 °F -8.7 °F 30.07 in Calm     84% 0.00 in 0 W/m2
05:24 -5.2 °F -8.8 °F 30.07 in Calm     84% 0.00 in 0 W/m2
05:29 -5.3 °F -8.9 °F 30.07 in Calm     84% 0.00 in 0 W/m2
05:36 -5.4 °F -9.0 °F 30.07 in Calm     84% 0.00 in 0 W/m2
05:42 -5.5 °F -9.1 °F 30.07 in Calm     84% 0.00 in 0 W/m2
05:48 -5.6 °F -9.2 °F 30.07 in Calm     84% 0.00 in 0 W/m2
05:53 -5.7 °F -9.3 °F 30.07 in Calm     84% 0.00 in 0 W/m2
06:00 -5.7 °F -9.3 °F 30.07 in Calm     84% 0.00 in 0 W/m2
06:06 -5.8 °F -9.4 °F 30.07 in Calm     84% 0.00 in 0 W/m2
06:12 -5.9 °F -9.5 °F 30.07 in Calm     84% 0.00 in 0 W/m2
06:18 -6.0 °F -9.6 °F 30.07 in Calm     84% 0.00 in 0 W/m2
06:23 -6.1 °F -9.7 °F 30.07 in Calm     84% 0.00 in 0 W/m2
06:30 -6.2 °F -9.8 °F 30.07 in Calm     84% 0.00 in 0 W/m2
06:36 -6.3 °F -9.9 °F 30.07 in Calm     84% 0.00 in 0 W/m2
06:42 -6.4 °F -10.0 °F 30.07 in Calm     84% 0.00 in 0 W/m2
06:48 -6.4 °F -10.2 °F 30.07 in Calm     83% 0.00 in 0 W/m2
06:53 -6.5 °F -10.1 °F 30.06 in Calm     84% 0.00 in 0 W/m2
06:59 -6.6 °F -10.2 °F 30.07 in Calm     84% 0.00 in 0 W/m2
07:05 -6.6 °F -10.4 °F 30.07 in Calm     83% 0.00 in 0 W/m2
07:12 -6.6 °F -10.4 °F 30.07 in Calm     83% 0.00 in 0 W/m2
07:18 -6.5 °F -10.1 °F 30.07 in Calm     84% 0.00 in 0 W/m2
07:24 -6.3 °F -9.9 °F 30.06 in Calm     84% 0.00 in 0 W/m2
07:30 -6.1 °F -9.7 °F 30.06 in Calm     84% 0.00 in 0 W/m2
07:35 -6.0 °F -9.6 °F 30.06 in Calm     84% 0.00 in 5 W/m2
07:42 -5.7 °F -9.3 °F 30.07 in Calm     84% 0.00 in 9 W/m2
07:48 -5.2 °F -8.8 °F 30.07 in Calm     84% 0.00 in 11 W/m2
07:54 -4.5 °F -7.9 °F 30.07 in Calm     85% 0.00 in 14 W/m2
08:00 -3.3 °F -6.7 °F 30.06 in Calm   1.0 mph 85% 0.00 in 18 W/m2
08:06 -2.2 °F -5.6 °F 30.06 in Calm   1.0 mph 85% 0.00 in 23 W/m2
08:12 -1.3 °F -4.5 °F 30.06 in Calm     86% 0.00 in 28 W/m2
08:18 -0.5 °F -3.7 °F 30.06 in Calm     86% 0.00 in 33 W/m2
08:24 0.1 °F -3.1 °F 30.06 in Calm     86% 0.00 in 35 W/m2
08:30 0.7 °F -2.5 °F 30.07 in Calm     86% 0.00 in 42 W/m2
08:36 1.4 °F -1.8 °F 30.07 in Calm     86% 0.00 in 47 W/m2
08:42 2.2 °F -1.0 °F 30.07 in Calm     86% 0.00 in 56 W/m2
08:48 3.3 °F 0.3 °F 30.07 in Calm     87% 0.00 in 62 W/m2
08:54 4.4 °F 1.4 °F 30.07 in Calm     87% 0.00 in 72 W/m2
08:59 5.3 °F 2.3 °F 30.07 in Calm     87% 0.00 in 76 W/m2
09:06 6.1 °F 3.1 °F 30.07 in Calm     87% 0.00 in 79 W/m2
09:12 7.4 °F 4.6 °F 30.07 in Calm     88% 0.00 in 90 W/m2
09:18 8.8 °F 6.0 °F 30.07 in Calm     88% 0.00 in 97 W/m2
09:24 10.1 °F 7.5 °F 30.07 in Calm   2.0 mph 89% 0.00 in 102 W/m2
09:30 11.5 °F 8.9 °F 30.07 in WSW 1.0 mph 1.0 mph 89% 0.00 in 111 W/m2
09:35 12.9 °F 10.3 °F 30.07 in West 2.0 mph 4.0 mph 89% 0.00 in 125 W/m2
09:42 13.9 °F 11.0 °F 30.07 in WSW 2.0 mph 2.0 mph 88% 0.00 in 148 W/m2
09:48 14.8 °F 11.6 °F 30.07 in West 2.0 mph 3.0 mph 87% 0.00 in 132 W/m2
09:54 15.4 °F 12.2 °F 30.07 in SW 3.0 mph 5.0 mph 87% 0.00 in 156 W/m2
09:59 16.0 °F 12.6 °F 30.07 in West 4.0 mph 6.0 mph 86% 0.00 in 169 W/m2
10:05 16.5 °F 12.8 °F 30.07 in West 4.0 mph 7.0 mph 85% 0.00 in 174 W/m2
10:12 16.9 °F 13.2 °F 30.07 in WSW 4.0 mph 4.0 mph 85% 0.00 in 162 W/m2
10:18 17.2 °F 13.5 °F 30.08 in SW 4.0 mph 8.0 mph 85% 0.00 in 174 W/m2
10:24 17.4 °F 13.4 °F 30.08 in WSW 5.0 mph 6.0 mph 84% 0.00 in 163 W/m2
10:29 17.6 °F 13.6 °F 30.07 in SW 5.0 mph 5.0 mph 84% 0.00 in 186 W/m2
10:36 17.7 °F 13.4 °F 30.07 in West 5.0 mph 8.0 mph 83% 0.00 in 199 W/m2
10:42 18.0 °F 14.0 °F 30.06 in WSW 5.0 mph 5.0 mph 84% 0.00 in 172 W/m2
10:48 18.1 °F 13.8 °F 30.06 in West 5.0 mph 5.0 mph 83% 0.00 in 135 W/m2
10:53 18.0 °F 13.7 °F 30.06 in WSW 4.0 mph 7.0 mph 83% 0.00 in 121 W/m2
10:59 18.4 °F 14.4 °F 30.06 in WSW 3.0 mph 5.0 mph 84% 0.00 in 223 W/m2
11:06 18.6 °F 14.6 °F 30.06 in WNW 4.0 mph 5.0 mph 84% 0.00 in 237 W/m2
11:12 18.8 °F 14.5 °F 30.07 in West 5.0 mph 7.0 mph 83% 0.00 in 308 W/m2
11:18 19.0 °F 14.7 °F 30.06 in WSW 4.0 mph 7.0 mph 83% 0.00 in 225 W/m2
11:23 19.1 °F 14.8 °F 30.06 in WSW 4.0 mph 7.0 mph 83% 0.00 in 330 W/m2
11:30 19.3 °F 14.7 °F 30.06 in SSW 5.0 mph 6.0 mph 82% 0.00 in 272 W/m2
11:35 19.3 °F 14.7 °F 30.06 in West 5.0 mph 6.0 mph 82% 0.00 in 253 W/m2
11:42 19.3 °F 14.7 °F 30.05 in West 5.0 mph 10.0 mph 82% 0.00 in 213 W/m2
11:48 19.5 °F 15.2 °F 30.05 in West 4.0 mph 10.0 mph 83% 0.00 in 234 W/m2
11:53 19.7 °F 15.1 °F 30.05 in SW 3.0 mph 6.0 mph 82% 0.00 in 223 W/m2
12:00 19.7 °F 15.1 °F 30.05 in WSW 4.0 mph 11.0 mph 82% 0.00 in 220 W/m2
12:06 19.6 °F 14.7 °F 30.05 in West 6.0 mph 11.0 mph 81% 0.00 in 237 W/m2
12:12 19.7 °F 14.8 °F 30.05 in WNW 6.0 mph 6.0 mph 81% 0.00 in 221 W/m2
12:18 19.9 °F 15.3 °F 30.04 in WSW 4.0 mph 6.0 mph 82% 0.00 in 227 W/m2
12:23 19.9 °F 15.0 °F 30.04 in West 5.0 mph 5.0 mph 81% 0.00 in 223 W/m2
12:30 20.0 °F 15.1 °F 30.03 in NW 6.0 mph 6.0 mph 81% 0.00 in 202 W/m2
12:36 20.0 °F 15.1 °F 30.03 in SW 6.0 mph 10.0 mph 81% 0.00 in 225 W/m2
12:42 20.2 °F 15.3 °F 30.03 in WSW 6.0 mph 10.0 mph 81% 0.00 in 220 W/m2
12:48 20.3 °F 15.4 °F 30.03 in West 6.0 mph 10.0 mph 81% 0.00 in 230 W/m2
12:54 20.4 °F 15.5 °F 30.03 in SW 5.0 mph 7.0 mph 81% 0.00 in 221 W/m2
13:00 20.5 °F 15.9 °F 30.03 in WSW 4.0 mph 4.0 mph 82% 0.00 in 241 W/m2
13:06 20.7 °F 15.8 °F 30.02 in SW 4.0 mph 6.0 mph 81% 0.00 in 234 W/m2
13:12 20.8 °F 15.9 °F 30.02 in SW 5.0 mph 7.0 mph 81% 0.00 in 225 W/m2
13:20 21.0 °F 16.1 °F 30.02 in SW 4.0 mph 9.0 mph 81% 0.00 in 234 W/m2
13:25 20.9 °F 16.0 °F 30.03 in SW 5.0 mph 9.0 mph 81% 0.00 in 218 W/m2
13:32 21.0 °F 16.1 °F 30.02 in WSW 5.0 mph 6.0 mph 81% 0.00 in 207 W/m2
13:38 21.1 °F 15.9 °F 30.02 in WSW 5.0 mph 7.0 mph 80% 0.00 in 206 W/m2
13:44 21.3 °F 16.4 °F 30.02 in SW 4.0 mph 5.0 mph 81% 0.00 in 179 W/m2
13:49 21.3 °F 16.1 °F 30.02 in WNW 4.0 mph 4.0 mph 80% 0.00 in 158 W/m2
13:56 21.3 °F 16.1 °F 30.02 in SW 4.0 mph 8.0 mph 80% 0.00 in 151 W/m2
14:02 21.3 °F 16.1 °F 30.02 in West 4.0 mph 5.0 mph 80% 0.00 in 134 W/m2
14:08 21.2 °F 16.0 °F 30.02 in West 4.0 mph 9.0 mph 80% 0.00 in 118 W/m2
14:14 21.3 °F 16.1 °F 30.02 in WSW 4.0 mph 4.0 mph 80% 0.00 in 111 W/m2
14:20 21.3 °F 16.1 °F 30.02 in SW 4.0 mph 4.0 mph 80% 0.00 in 111 W/m2
14:26 21.1 °F 15.9 °F 30.01 in West 5.0 mph 6.0 mph 80% 0.00 in 109 W/m2
14:32 21.0 °F 15.8 °F 30.01 in SW 6.0 mph 6.0 mph 80% 0.00 in 114 W/m2
14:38 21.0 °F 15.8 °F 30.01 in WSW 6.0 mph 11.0 mph 80% 0.00 in 105 W/m2
14:44 21.1 °F 15.9 °F 30.01 in SW 6.0 mph 8.0 mph 80% 0.00 in 102 W/m2
14:49 21.1 °F 15.9 °F 30.01 in WSW 4.0 mph 4.0 mph 80% 0.00 in 97 W/m2
14:55 21.3 °F 16.1 °F 30.02 in WSW 4.0 mph 7.0 mph 80% 0.00 in 93 W/m2
15:02 21.2 °F 16.0 °F 30.02 in WNW 4.0 mph 4.0 mph 80% 0.00 in 81 W/m2
15:08 21.2 °F 16.6 °F 30.02 in West 3.0 mph 7.0 mph 82% 0.00 in 70 W/m2
15:14 21.2 °F 16.0 °F 30.02 in West 4.0 mph 12.0 mph 80% 0.00 in 67 W/m2
15:20 21.1 °F 16.2 °F 30.02 in SW 5.0 mph 5.0 mph 81% 0.00 in 58 W/m2
15:25 21.1 °F 15.9 °F 30.02 in WSW 5.0 mph 6.0 mph 80% 0.00 in 56 W/m2
15:32 21.1 °F 15.9 °F 30.02 in WSW 5.0 mph 7.0 mph 80% 0.00 in 51 W/m2
15:38 21.0 °F 15.8 °F 30.02 in West 5.0 mph 7.0 mph 80% 0.00 in 47 W/m2
15:43 21.0 °F 15.8 °F 30.02 in WSW 5.0 mph 5.0 mph 80% 0.00 in 42 W/m2
15:50 21.0 °F 16.1 °F 30.02 in WSW 4.0 mph 4.0 mph 81% 0.00 in 39 W/m2
15:56 21.0 °F 16.1 °F 30.02 in SW 3.0 mph 5.0 mph 81% 0.00 in 33 W/m2
16:02 21.0 °F 16.1 °F 30.02 in WSW 4.0 mph 4.0 mph 81% 0.00 in 33 W/m2
16:08 21.0 °F 16.1 °F 30.02 in WSW 4.0 mph 9.0 mph 81% 0.00 in 30 W/m2
16:14 21.0 °F 16.1 °F 30.02 in SW 3.0 mph 7.0 mph 81% 0.00 in 26 W/m2
16:20 21.0 °F 16.1 °F 30.02 in WSW 3.0 mph 3.0 mph 81% 0.00 in 25 W/m2
16:25 21.0 °F 16.1 °F 30.02 in West 3.0 mph 4.0 mph 81% 0.00 in 18 W/m2
16:32 21.1 °F 16.2 °F 30.02 in SW 2.0 mph 8.0 mph 81% 0.00 in 14 W/m2
16:38 21.1 °F 16.2 °F 30.02 in West 2.0 mph 8.0 mph 81% 0.00 in 11 W/m2
16:44 21.1 °F 16.2 °F 30.02 in West 2.0 mph 6.0 mph 81% 0.00 in 9 W/m2
16:50 21.2 °F 16.3 °F 30.02 in West 3.0 mph 5.0 mph 81% 0.00 in 5 W/m2
16:55 21.2 °F 16.3 °F 30.02 in WSW 3.0 mph 5.0 mph 81% 0.00 in 0 W/m2
17:02 21.3 °F 16.4 °F 30.01 in WSW 3.0 mph 5.0 mph 81% 0.00 in 0 W/m2
17:08 21.3 °F 16.4 °F 30.01 in WSW 3.0 mph 5.0 mph 81% 0.00 in 0 W/m2
17:13 21.3 °F 16.4 °F 30.01 in WSW 4.0 mph 5.0 mph 81% 0.00 in 0 W/m2
17:20 21.3 °F 16.4 °F 30.01 in SW 3.0 mph 6.0 mph 81% 0.00 in 0 W/m2
17:25 21.3 °F 16.1 °F 30.01 in NW 4.0 mph 6.0 mph 80% 0.00 in 0 W/m2
17:32 21.3 °F 16.4 °F 30.01 in WSW 3.0 mph 4.0 mph 81% 0.00 in 0 W/m2
17:38 21.3 °F 16.4 °F 30.01 in West 3.0 mph 9.0 mph 81% 0.00 in 0 W/m2
17:43 21.3 °F 16.1 °F 30.01 in WSW 4.0 mph 7.0 mph 80% 0.00 in 0 W/m2
17:50 21.2 °F 16.0 °F 30.01 in WNW 4.0 mph 5.0 mph 80% 0.00 in 0 W/m2
17:56 21.2 °F 16.3 °F 30.02 in West 3.0 mph 5.0 mph 81% 0.00 in 0 W/m2
18:04 21.1 °F 16.2 °F 30.02 in West 2.0 mph 5.0 mph 81% 0.00 in 0 W/m2
18:10 21.1 °F 16.2 °F 30.02 in SW 2.0 mph 4.0 mph 81% 0.00 in 0 W/m2
18:16 21.1 °F 16.2 °F 30.03 in WSW 2.0 mph 4.0 mph 81% 0.00 in 0 W/m2
18:22 21.1 °F 16.2 °F 30.03 in SW 2.0 mph 3.0 mph 81% 0.00 in 0 W/m2
18:29 21.1 °F 16.2 °F 30.03 in West 3.0 mph 3.0 mph 81% 0.00 in 0 W/m2
18:35 21.1 °F 16.2 °F 30.03 in WSW 3.0 mph 5.0 mph 81% 0.00 in 0 W/m2
18:42 21.1 °F 16.2 °F 30.03 in WNW 3.0 mph 3.0 mph 81% 0.00 in 0 W/m2
18:48 21.1 °F 16.2 °F 30.03 in West 2.0 mph 5.0 mph 81% 0.00 in 0 W/m2
18:54 21.1 °F 16.2 °F 30.03 in SSW 3.0 mph 5.0 mph 81% 0.00 in 0 W/m2
19:00 21.1 °F 16.2 °F 30.03 in WSW 2.0 mph 7.0 mph 81% 0.00 in 0 W/m2
19:06 21.1 °F 16.2 °F 30.03 in WSW 3.0 mph 7.0 mph 81% 0.00 in 0 W/m2
19:12 21.1 °F 16.2 °F 30.03 in WSW 2.0 mph 6.0 mph 81% 0.00 in 0 W/m2
19:18 21.0 °F 16.1 °F 30.03 in WSW 3.0 mph 6.0 mph 81% 0.00 in 0 W/m2
19:23 21.0 °F 16.1 °F 30.03 in SW 3.0 mph 3.0 mph 81% 0.00 in 0 W/m2
19:30 21.0 °F 16.1 °F 30.03 in West 3.0 mph 3.0 mph 81% 0.00 in 0 W/m2
19:36 21.0 °F 16.1 °F 30.04 in WSW 2.0 mph 3.0 mph 81% 0.00 in 0 W/m2
19:42 21.0 °F 16.1 °F 30.03 in SW 2.0 mph 4.0 mph 81% 0.00 in 0 W/m2
19:48 21.0 °F 16.1 °F 30.03 in SW 3.0 mph 6.0 mph 81% 0.00 in 0 W/m2
19:53 21.0 °F 16.1 °F 30.03 in SW 3.0 mph 5.0 mph 81% 0.00 in 0 W/m2
19:59 21.0 °F 16.1 °F 30.03 in SW 2.0 mph 3.0 mph 81% 0.00 in 0 W/m2
20:05 21.0 °F 16.1 °F 30.03 in SW 2.0 mph 5.0 mph 81% 0.00 in 0 W/m2
20:12 20.9 °F 16.0 °F 30.03 in SW 3.0 mph 3.0 mph 81% 0.00 in 0 W/m2
20:18 20.9 °F 16.0 °F 30.03 in WSW 1.0 mph 5.0 mph 81% 0.00 in 0 W/m2
20:24 20.9 °F 16.0 °F 30.03 in SSW 2.0 mph 3.0 mph 81% 0.00 in 0 W/m2
20:30 20.9 °F 16.0 °F 30.03 in WSW 2.0 mph 2.0 mph 81% 0.00 in 0 W/m2
20:35 20.8 °F 15.9 °F 30.03 in SW 2.0 mph 2.0 mph 81% 0.00 in 0 W/m2
20:42 20.7 °F 15.8 °F 30.03 in SSW 2.0 mph 2.0 mph 81% 0.00 in 0 W/m2
20:48 20.6 °F 15.7 °F 30.02 in SW 2.0 mph 3.0 mph 81% 0.00 in 0 W/m2
20:54 20.5 °F 15.6 °F 30.02 in SW 1.0 mph 2.0 mph 81% 0.00 in 0 W/m2
21:00 20.4 °F 15.5 °F 30.02 in Calm   1.0 mph 81% 0.00 in 0 W/m2
21:06 20.3 °F 15.7 °F 30.01 in Calm   1.0 mph 82% 0.00 in 0 W/m2
21:12 20.2 °F 15.6 °F 30.01 in Calm     82% 0.00 in 0 W/m2
21:18 20.1 °F 15.5 °F 30.01 in Calm     82% 0.00 in 0 W/m2
21:24 20.0 °F 15.4 °F 30.01 in SW 1.0 mph 1.0 mph 82% 0.00 in 0 W/m2
21:30 19.8 °F 15.2 °F 30.01 in Calm     82% 0.00 in 0 W/m2
21:36 19.6 °F 15.0 °F 30.01 in Calm     82% 0.00 in 0 W/m2
21:42 19.3 °F 14.7 °F 30.01 in Calm     82% 0.00 in 0 W/m2
21:48 18.8 °F 14.5 °F 30.01 in Calm   1.0 mph 83% 0.00 in 0 W/m2
21:53 18.5 °F 14.2 °F 30.00 in Calm     83% 0.00 in 0 W/m2
22:00 18.1 °F 13.8 °F 30.00 in Calm     83% 0.00 in 0 W/m2
22:06 17.4 °F 13.1 °F 30.00 in Calm     83% 0.00 in 0 W/m2
22:12 17.0 °F 13.0 °F 30.00 in Calm     84% 0.00 in 0 W/m2
22:18 16.8 °F 12.8 °F 30.00 in Calm     84% 0.00 in 0 W/m2
22:24 16.6 °F 12.6 °F 30.00 in Calm     84% 0.00 in 0 W/m2
22:29 16.5 °F 12.8 °F 30.00 in Calm     85% 0.00 in 0 W/m2
22:36 16.3 °F 12.6 °F 30.00 in Calm     85% 0.00 in 0 W/m2
22:42 16.1 °F 12.4 °F 30.00 in Calm     85% 0.00 in 0 W/m2
22:48 15.9 °F 12.2 °F 30.00 in Calm     85% 0.00 in 0 W/m2
22:54 15.7 °F 12.0 °F 30.00 in Calm     85% 0.00 in 0 W/m2
22:59 15.4 °F 11.7 °F 29.99 in Calm     85% 0.00 in 0 W/m2
23:05 15.0 °F 11.6 °F 29.99 in Calm     86% 0.00 in 0 W/m2
23:12 14.6 °F 11.2 °F 29.99 in Calm     86% 0.00 in 0 W/m2
23:18 14.4 °F 11.0 °F 29.99 in Calm     86% 0.00 in 0 W/m2
23:24 14.3 °F 10.9 °F 29.99 in Calm     86% 0.00 in 0 W/m2
23:30 14.2 °F 10.8 °F 29.99 in Calm     86% 0.00 in 0 W/m2
23:35 14.2 °F 11.0 °F 29.99 in Calm     87% 0.00 in 0 W/m2
23:42 14.4 °F 11.2 °F 29.99 in Calm     87% 0.00 in 0 W/m2
23:48 14.8 °F 11.6 °F 29.99 in Calm     87% 0.00 in 0 W/m2
23:54 15.2 °F 12.3 °F 29.99 in Calm     88% 0.00 in 0 W/m2
Country Meadow, Clay, NY, USA
Compliments of Weather Underground - 2 mb